createdAt,value
2019-05-10T00:02:10.700Z,90.70
2019-05-10T00:04:55.886Z,91.80
2019-05-10T00:07:41.158Z,91.88
2019-05-10T00:10:07.644Z,92.36
2019-05-10T00:12:45.124Z,91.73
2019-05-10T00:15:13.097Z,92.18
2019-05-10T00:18:01.180Z,93.58
2019-05-10T00:20:27.923Z,93.90
2019-05-10T00:22:54.732Z,92.91
2019-05-10T00:25:21.482Z,93.45
2019-05-10T00:27:48.227Z,94.16
2019-05-10T00:30:15.139Z,94.20
2019-05-10T00:32:41.993Z,94.93
2019-05-10T00:35:08.779Z,95.27
2019-05-10T00:37:35.601Z,92.81
2019-05-10T00:40:04.380Z,92.49
2019-05-10T00:42:31.268Z,93.00
2019-05-10T00:44:58.029Z,92.61
2019-05-10T00:47:24.947Z,92.83
2019-05-10T00:49:51.592Z,91.87
2019-05-10T00:52:18.707Z,93.78
2019-05-10T00:54:45.781Z,94.76
2019-05-10T00:57:12.534Z,95.36
2019-05-10T00:59:39.272Z,95.81
2019-05-10T01:02:06.082Z,94.73
2019-05-10T01:04:33.110Z,94.88
2019-05-10T01:07:00.099Z,95.83
2019-05-10T01:09:27.177Z,95.70
2019-05-10T01:11:54.245Z,96.14
2019-05-10T01:14:22.051Z,96.77
2019-05-10T01:16:48.883Z,97.48
2019-05-10T01:19:15.631Z,97.95
2019-05-10T01:21:42.859Z,98.42
2019-05-10T01:24:09.644Z,98.23
2019-05-10T01:26:36.402Z,98.16
2019-05-10T01:29:03.287Z,95.31
2019-05-10T01:31:30.050Z,94.75
2019-05-10T01:33:56.678Z,94.82
2019-05-10T01:36:23.694Z,95.44
2019-05-10T01:38:50.660Z,96.70
2019-05-10T01:41:23.725Z,97.10
2019-05-10T01:43:50.622Z,96.43
2019-05-10T01:46:17.667Z,96.78
2019-05-10T01:48:44.451Z,97.66
2019-05-10T01:51:11.107Z,97.26
2019-05-10T01:53:37.985Z,97.08
2019-05-10T01:56:05.163Z,98.02
2019-05-10T01:58:31.902Z,98.50
2019-05-10T02:00:58.794Z,97.94
2019-05-10T02:03:25.590Z,98.48
2019-05-10T02:05:52.334Z,99.12
2019-05-10T02:08:19.123Z,99.29
2019-05-10T02:10:45.874Z,99.24
2019-05-10T02:13:12.617Z,95.11
2019-05-10T02:15:39.748Z,93.34
2019-05-10T02:18:07.022Z,92.84
2019-05-10T02:20:33.761Z,92.04
2019-05-10T02:23:00.950Z,92.39
2019-05-10T02:25:27.705Z,93.21
2019-05-10T02:27:54.767Z,94.67
2019-05-10T02:30:21.689Z,96.20
2019-05-10T02:32:48.454Z,95.98
2019-05-10T02:35:15.354Z,96.11
2019-05-10T02:37:42.210Z,96.79
2019-05-10T02:40:09.939Z,96.87
2019-05-10T02:42:36.788Z,98.05
2019-05-10T02:45:04.145Z,97.55
2019-05-10T02:47:30.943Z,98.06
2019-05-10T02:49:59.314Z,96.97
2019-05-10T02:52:26.327Z,94.64
2019-05-10T02:55:01.242Z,93.37
2019-05-10T02:57:28.139Z,95.64
2019-05-10T02:59:54.980Z,94.60
2019-05-10T03:02:21.720Z,93.11
2019-05-10T03:04:48.972Z,93.23
2019-05-10T03:07:17.204Z,93.73
2019-05-10T03:09:47.342Z,92.26
2019-05-10T03:12:28.264Z,93.45
2019-05-10T03:14:56.765Z,95.23
2019-05-10T03:17:30.770Z,96.18
2019-05-10T03:19:59.480Z,94.73
2019-05-10T03:22:26.438Z,94.59
2019-05-10T03:24:53.830Z,96.03
2019-05-10T03:27:20.720Z,94.44
2019-05-10T03:29:47.614Z,94.24
2019-05-10T03:32:14.421Z,92.74
2019-05-10T03:34:41.929Z,92.33
2019-05-10T03:37:08.869Z,90.14
2019-05-10T03:39:36.038Z,90.61
2019-05-10T03:42:02.841Z,90.99
2019-05-10T03:44:29.585Z,91.43
2019-05-10T03:46:57.032Z,89.72
2019-05-10T03:49:23.803Z,89.48
2019-05-10T03:51:50.645Z,88.48
2019-05-10T03:54:17.385Z,89.03
2019-05-10T03:56:44.410Z,88.01
2019-05-10T03:59:11.307Z,88.18
2019-05-10T04:01:38.052Z,88.53
2019-05-10T04:04:09.354Z,87.80
2019-05-10T04:06:33.613Z,88.04
2019-05-10T04:09:00.450Z,88.43
2019-05-10T04:11:27.246Z,87.84
2019-05-10T04:13:54.540Z,87.53
2019-05-10T04:16:21.325Z,87.64
2019-05-10T04:18:48.158Z,86.90
2019-05-10T04:21:15.109Z,87.62
2019-05-10T04:23:43.224Z,87.18
2019-05-10T04:26:10.270Z,87.93
2019-05-10T04:28:37.170Z,87.49
2019-05-10T04:31:03.919Z,87.85
2019-05-10T04:33:30.852Z,88.32
2019-05-10T04:35:57.586Z,89.79
2019-05-10T04:38:24.339Z,88.71
2019-05-10T04:40:51.109Z,88.34
2019-05-10T04:43:17.807Z,90.26
2019-05-10T04:45:44.927Z,89.81
2019-05-10T04:48:11.815Z,88.60
2019-05-10T04:50:38.627Z,88.27
2019-05-10T04:53:05.527Z,88.25
2019-05-10T04:55:33.990Z,87.88
2019-05-10T04:58:00.893Z,88.04
2019-05-10T05:00:27.901Z,88.12
2019-05-10T05:02:54.659Z,87.96
2019-05-10T05:05:21.727Z,88.67
2019-05-10T05:07:48.791Z,88.68
2019-05-10T05:10:15.545Z,89.69
2019-05-10T05:12:42.337Z,91.63
2019-05-10T05:15:09.090Z,88.29
2019-05-10T05:17:35.852Z,87.87
2019-05-10T05:20:03.703Z,88.59
2019-05-10T05:22:30.448Z,87.84
2019-05-10T05:25:01.326Z,87.93
2019-05-10T05:27:25.920Z,85.86
2019-05-10T05:29:52.685Z,86.35
2019-05-10T05:32:19.600Z,84.78
2019-05-10T05:34:46.774Z,82.06
2019-05-10T05:37:13.836Z,82.60
2019-05-10T05:39:40.926Z,81.51
2019-05-10T05:42:08.132Z,81.71
2019-05-10T05:44:34.790Z,78.77
2019-05-10T05:47:04.568Z,78.13
2019-05-10T05:49:30.371Z,77.73
2019-05-10T05:51:57.544Z,78.04
2019-05-10T05:54:24.645Z,77.80
2019-05-10T05:56:53.135Z,77.24
2019-05-10T05:59:23.809Z,76.69
2019-05-10T06:01:48.849Z,77.43
2019-05-10T06:04:15.952Z,76.08
2019-05-10T06:06:43.107Z,75.00
2019-05-10T06:09:10.009Z,74.78
2019-05-10T06:11:37.855Z,75.94
2019-05-10T06:14:10.889Z,75.74
2019-05-10T06:16:36.722Z,75.96
2019-05-10T06:19:03.572Z,74.57
2019-05-10T06:21:30.556Z,74.86
2019-05-10T06:23:59.410Z,75.67
2019-05-10T06:26:28.559Z,74.90
2019-05-10T06:28:59.516Z,73.99
2019-05-10T06:31:23.532Z,74.09
2019-05-10T06:33:50.424Z,73.63
2019-05-10T06:36:17.333Z,73.83
2019-05-10T06:38:44.080Z,74.34
2019-05-10T06:41:16.936Z,73.98
2019-05-10T06:43:39.431Z,74.37
2019-05-10T06:46:06.329Z,73.34
2019-05-10T06:48:33.838Z,72.15
2019-05-10T06:51:02.869Z,72.42
2019-05-10T06:53:29.925Z,72.22
2019-05-10T06:55:56.960Z,72.20
2019-05-10T06:58:23.726Z,73.28
2019-05-10T07:00:50.805Z,72.62
2019-05-10T07:03:17.577Z,71.95
2019-05-10T07:05:44.386Z,72.37
2019-05-10T07:08:19.502Z,72.47
2019-05-10T07:10:39.988Z,71.87
2019-05-10T07:13:07.001Z,73.27
2019-05-10T07:15:35.680Z,76.79
2019-05-10T07:18:02.462Z,76.28
2019-05-10T07:20:30.869Z,75.53
2019-05-10T07:23:00.181Z,75.79
2019-05-10T07:25:26.543Z,74.38
2019-05-10T07:27:53.333Z,73.32
2019-05-10T07:30:30.274Z,73.11
2019-05-10T07:32:59.702Z,73.66
2019-05-10T07:35:30.901Z,75.61
2019-05-10T07:37:54.809Z,73.57
2019-05-10T07:40:21.675Z,74.52
2019-05-10T07:42:48.452Z,74.91
2019-05-10T07:45:18.968Z,74.63
2019-05-10T07:47:44.174Z,74.94
2019-05-10T07:50:11.588Z,73.15
2019-05-10T07:52:43.324Z,72.35
2019-05-10T07:55:10.264Z,72.44
2019-05-10T07:57:36.724Z,72.18
2019-05-10T08:00:05.997Z,72.45
2019-05-10T08:02:32.359Z,72.15
2019-05-10T08:05:04.532Z,71.16
2019-05-10T08:07:29.428Z,70.93
2019-05-10T08:09:56.619Z,70.96
2019-05-10T08:12:23.759Z,69.96
2019-05-10T08:14:53.487Z,70.51
2019-05-10T08:17:19.334Z,71.65
2019-05-10T08:19:46.044Z,70.30
2019-05-10T08:22:14.828Z,70.30
2019-05-10T08:24:44.610Z,69.41
2019-05-10T08:27:14.255Z,69.99
2019-05-10T08:29:39.492Z,68.75
2019-05-10T08:32:06.399Z,69.51
2019-05-10T08:34:35.538Z,68.30
2019-05-10T08:37:02.557Z,69.64
2019-05-10T08:39:35.246Z,69.44
2019-05-10T08:42:04.833Z,68.92
2019-05-10T08:44:27.338Z,67.32
2019-05-10T08:46:54.118Z,68.84
2019-05-10T08:49:25.645Z,68.27
2019-05-10T08:51:52.181Z,68.77
2019-05-10T08:54:18.770Z,68.84
2019-05-10T08:56:46.682Z,69.00
2019-05-10T08:59:16.364Z,69.12
2019-05-10T09:01:46.491Z,69.92
2019-05-10T09:04:13.761Z,69.22
2019-05-10T09:06:42.049Z,69.60
2019-05-10T09:09:09.071Z,69.52
2019-05-10T09:11:35.837Z,68.24
2019-05-10T09:14:03.302Z,67.24
2019-05-10T09:16:39.355Z,60.79
2019-05-10T09:18:59.151Z,59.98
2019-05-10T09:21:25.927Z,57.17
2019-05-10T09:24:01.230Z,57.01
2019-05-10T09:26:22.729Z,58.47
2019-05-10T09:28:55.510Z,71.23
2019-05-10T09:31:22.684Z,81.51
2019-05-10T09:33:49.545Z,89.84
2019-05-10T09:36:16.073Z,96.53
2019-05-10T09:38:44.092Z,96.52
2019-05-10T09:41:11.914Z,100.00
2019-05-10T09:43:42.441Z,99.34
2019-05-10T09:46:07.629Z,100.00
2019-05-10T09:48:34.385Z,100.00
2019-05-10T09:51:04.058Z,98.10
2019-05-10T09:53:30.695Z,92.12
2019-05-10T09:56:04.563Z,88.38
2019-05-10T09:58:31.597Z,90.44
2019-05-10T10:01:13.464Z,93.84
2019-05-10T10:03:29.635Z,87.11
2019-05-10T10:06:05.676Z,88.07
2019-05-10T10:08:28.451Z,82.69
2019-05-10T10:11:01.172Z,85.14
2019-05-10T10:13:36.853Z,80.96
2019-05-10T10:15:52.954Z,77.84
2019-05-10T10:18:25.073Z,78.37
2019-05-10T10:20:49.415Z,80.33
2019-05-10T10:23:17.308Z,77.68
2019-05-10T10:25:44.266Z,78.06
2019-05-10T10:28:17.251Z,80.29
2019-05-10T10:30:40.630Z,79.43
2019-05-10T10:33:11.469Z,78.87
2019-05-10T10:35:37.811Z,79.75
2019-05-10T10:38:05.628Z,78.60
2019-05-10T10:40:35.378Z,74.48
2019-05-10T10:43:03.050Z,75.13
2019-05-10T10:45:29.863Z,78.58
2019-05-10T10:47:57.441Z,77.80
2019-05-10T10:50:24.390Z,81.05
2019-05-10T10:52:51.345Z,74.86
2019-05-10T10:55:19.298Z,76.26
2019-05-10T10:57:48.103Z,79.07
2019-05-10T11:00:23.230Z,75.84
2019-05-10T11:02:51.908Z,75.01
2019-05-10T11:05:17.448Z,70.76
2019-05-10T11:07:47.819Z,69.48
2019-05-10T11:10:21.600Z,66.82
2019-05-10T11:12:48.013Z,71.78
2019-05-10T11:15:16.466Z,65.65
2019-05-10T11:17:45.282Z,64.61
2019-05-10T11:20:12.295Z,69.12
2019-05-10T11:22:42.053Z,67.01
2019-05-10T11:25:10.383Z,69.27
2019-05-10T11:27:37.133Z,73.15
2019-05-10T11:30:04.820Z,76.38
2019-05-10T11:32:31.747Z,75.84
2019-05-10T11:34:59.519Z,76.02
2019-05-10T11:37:32.823Z,76.75
2019-05-10T11:39:56.370Z,74.72
2019-05-10T11:42:23.684Z,74.72
2019-05-10T11:44:54.580Z,72.89
2019-05-10T11:47:26.534Z,71.88
2019-05-10T11:49:50.850Z,68.07
2019-05-10T11:52:17.426Z,68.51
2019-05-10T11:54:44.218Z,65.41
2019-05-10T11:57:13.786Z,67.05
2019-05-10T11:59:41.555Z,65.67
2019-05-10T12:02:10.448Z,67.04
2019-05-10T12:04:39.509Z,60.75
2019-05-10T12:07:08.861Z,57.40
2019-05-10T12:09:34.695Z,59.13
2019-05-10T12:12:03.451Z,59.54
2019-05-10T12:14:30.519Z,55.30
2019-05-10T12:16:57.326Z,57.71
2019-05-10T12:19:24.169Z,59.10
2019-05-10T12:21:55.585Z,64.33
2019-05-10T12:26:59.026Z,74.10
2019-05-10T12:27:13.024Z,80.34
2019-05-10T12:29:17.406Z,86.63
2019-05-10T12:31:47.580Z,88.16
2019-05-10T12:34:14.600Z,93.87
2019-05-10T12:36:43.523Z,85.40
2019-05-10T12:39:11.604Z,84.19
2019-05-10T12:41:39.972Z,81.58
2019-05-10T12:44:07.634Z,83.31
2019-05-10T12:46:34.505Z,80.17
2019-05-10T12:49:02.116Z,75.32
2019-05-10T12:51:31.300Z,79.74
2019-05-10T12:53:58.262Z,80.38
2019-05-10T12:56:25.014Z,80.09
2019-05-10T12:58:57.512Z,76.71
2019-05-10T13:01:25.778Z,78.51
2019-05-10T13:03:49.170Z,78.47
2019-05-10T13:06:19.494Z,77.35
2019-05-10T13:08:44.968Z,79.06
2019-05-10T13:11:11.713Z,82.43
2019-05-10T13:13:39.155Z,74.37
2019-05-10T13:16:09.546Z,73.84
2019-05-10T13:18:52.829Z,72.25
2019-05-10T13:21:07.882Z,70.36
2019-05-10T13:23:35.137Z,72.84
2019-05-10T13:26:01.900Z,68.72
2019-05-10T13:28:28.817Z,74.11
2019-05-10T13:30:59.882Z,68.57
2019-05-10T13:33:28.948Z,66.65
2019-05-10T13:35:56.383Z,66.00
2019-05-10T13:38:21.905Z,72.91
2019-05-10T13:40:48.955Z,62.95
2019-05-10T13:43:17.365Z,61.75
2019-05-10T13:45:44.958Z,63.01
2019-05-10T13:48:11.764Z,66.89
2019-05-10T13:50:38.734Z,63.02
2019-05-10T13:53:05.593Z,58.91
2019-05-10T13:55:32.360Z,62.70
2019-05-10T13:57:59.271Z,63.48
2019-05-10T14:00:33.010Z,63.00
2019-05-10T14:02:56.459Z,59.73
2019-05-10T14:05:23.501Z,62.94
2019-05-10T14:07:52.767Z,57.85
2019-05-10T14:10:23.420Z,59.21
2019-05-10T14:12:47.938Z,59.02
2019-05-10T14:15:15.116Z,59.35
2019-05-10T14:17:42.005Z,59.05
2019-05-10T14:20:19.555Z,58.21
2019-05-10T14:22:37.677Z,54.75
2019-05-10T14:25:04.753Z,56.00
2019-05-10T14:27:36.144Z,54.12
2019-05-10T14:30:00.635Z,50.43
2019-05-10T14:32:27.478Z,51.82
2019-05-10T14:34:54.225Z,53.67
2019-05-10T14:37:21.652Z,56.26
2019-05-10T14:39:48.705Z,58.21
2019-05-10T14:42:15.592Z,55.89
2019-05-10T14:44:42.730Z,52.19
2019-05-10T14:47:11.139Z,54.73
2019-05-10T14:49:42.209Z,56.19
2019-05-10T14:52:08.042Z,58.08
2019-05-10T14:54:43.120Z,55.62
2019-05-10T14:57:03.740Z,56.95
2019-05-10T14:59:30.498Z,59.58
2019-05-10T15:01:57.250Z,56.21
2019-05-10T15:06:53.199Z,60.19
2019-05-10T15:09:23.975Z,55.48
2019-05-10T15:11:48.776Z,53.30
2019-05-10T15:14:15.556Z,53.54
2019-05-10T15:16:42.456Z,52.37
2019-05-10T15:19:09.464Z,54.18
2019-05-10T15:21:36.266Z,55.13
2019-05-10T15:24:03.206Z,51.87
2019-05-10T15:26:30.048Z,52.80
2019-05-10T15:28:56.947Z,54.65
2019-05-10T15:31:29.179Z,53.30
2019-05-10T15:33:52.871Z,55.86
2019-05-10T15:36:23.683Z,55.68
2019-05-10T15:38:51.908Z,56.18
2019-05-10T15:41:22.417Z,59.11
2019-05-10T15:43:49.020Z,59.07
2019-05-10T15:46:15.933Z,60.26
2019-05-10T15:48:43.387Z,61.92
2019-05-10T15:51:11.114Z,66.26
2019-05-10T15:53:41.661Z,66.96
2019-05-10T15:56:08.603Z,67.65
2019-05-10T15:58:36.693Z,66.11
2019-05-10T16:01:06.340Z,63.37
2019-05-10T16:03:33.220Z,61.85
2019-05-10T16:06:01.159Z,62.14
2019-05-10T16:08:30.298Z,59.98
2019-05-10T16:10:57.217Z,58.59
2019-05-10T16:13:25.182Z,59.08
2019-05-10T16:15:57.733Z,59.43
2019-05-10T16:18:20.886Z,60.59
2019-05-10T16:20:47.634Z,58.44
2019-05-10T16:23:14.547Z,59.09
2019-05-10T16:25:47.546Z,58.87
2019-05-10T16:28:10.151Z,57.17
2019-05-10T16:30:36.952Z,58.40
2019-05-10T16:33:03.891Z,58.38
2019-05-10T16:35:38.465Z,57.61
2019-05-10T16:38:00.764Z,58.34
2019-05-10T16:40:28.555Z,57.84
2019-05-10T16:42:55.346Z,57.80
2019-05-10T16:45:22.653Z,60.01
2019-05-10T16:47:50.318Z,60.01
2019-05-10T16:50:26.031Z,60.76
2019-05-10T16:52:59.352Z,60.09
2019-05-10T16:55:24.568Z,61.70
2019-05-10T16:57:54.801Z,62.82
2019-05-10T17:00:21.927Z,62.59
2019-05-10T17:02:49.175Z,62.80
2019-05-10T17:05:17.413Z,63.45
2019-05-10T17:07:44.985Z,64.08
2019-05-10T17:10:11.836Z,64.07
2019-05-10T17:12:38.863Z,63.73
2019-05-10T17:15:07.696Z,64.28
2019-05-10T17:17:37.028Z,63.64
2019-05-10T17:20:07.387Z,63.97
2019-05-10T17:22:33.359Z,62.80
2019-05-10T17:25:03.502Z,62.08
2019-05-10T17:27:28.994Z,63.07
2019-05-10T17:29:56.449Z,62.88
2019-05-10T17:32:24.832Z,62.94
2019-05-10T17:34:52.856Z,61.96
2019-05-10T17:37:21.321Z,62.22
2019-05-10T17:39:48.248Z,60.94
2019-05-10T17:42:15.268Z,61.34
2019-05-10T17:44:43.916Z,60.76
2019-05-10T17:47:11.246Z,59.68
2019-05-10T17:49:39.719Z,60.55
2019-05-10T17:52:06.690Z,60.82
2019-05-10T17:54:38.842Z,61.32
2019-05-10T17:57:02.410Z,61.54
2019-05-10T17:59:29.073Z,62.15
2019-05-10T18:01:56.326Z,62.97
2019-05-10T18:04:23.367Z,62.84
2019-05-10T18:06:50.095Z,62.94
2019-05-10T18:09:16.981Z,64.39
2019-05-10T18:11:45.027Z,63.49
2019-05-10T18:14:12.572Z,64.52
2019-05-10T18:16:41.972Z,64.94
2019-05-10T18:19:09.830Z,65.46
2019-05-10T18:21:36.583Z,65.90
2019-05-10T18:24:03.754Z,66.06
2019-05-10T18:26:34.233Z,66.30
2019-05-10T18:28:59.148Z,66.84
2019-05-10T18:31:25.790Z,67.34
2019-05-10T18:33:54.597Z,67.50
2019-05-10T18:36:26.818Z,69.44
2019-05-10T18:38:50.820Z,71.51
2019-05-10T18:41:17.900Z,72.94
2019-05-10T18:43:44.999Z,73.58
2019-05-10T18:46:12.033Z,74.01
2019-05-10T18:48:39.014Z,75.06
2019-05-10T18:51:06.466Z,76.18
2019-05-10T18:53:33.239Z,76.66
2019-05-10T18:56:00.733Z,76.30
2019-05-10T18:58:29.521Z,76.40
2019-05-10T19:01:00.578Z,77.55
2019-05-10T19:03:27.983Z,78.48
2019-05-10T19:05:54.381Z,78.36
2019-05-10T19:08:21.118Z,78.08
2019-05-10T19:10:48.444Z,79.09
2019-05-10T19:13:16.231Z,78.29
2019-05-10T19:15:46.063Z,78.40
2019-05-10T19:18:11.910Z,78.07
2019-05-10T19:20:39.482Z,77.44
2019-05-10T19:23:06.270Z,77.86
2019-05-10T19:25:33.136Z,78.28
2019-05-10T19:28:00.000Z,77.34
2019-05-10T19:30:26.841Z,76.45
2019-05-10T19:32:56.357Z,77.77
2019-05-10T19:35:22.664Z,78.97
2019-05-10T19:37:49.407Z,79.47
2019-05-10T19:40:16.193Z,80.53
2019-05-10T19:42:44.864Z,79.98
2019-05-10T19:45:12.894Z,80.97
2019-05-10T19:47:40.721Z,77.98
2019-05-10T19:50:07.706Z,77.71
2019-05-10T19:52:34.616Z,79.03
2019-05-10T19:55:01.457Z,78.35
2019-05-10T19:57:30.009Z,78.41
2019-05-10T19:59:56.850Z,80.51
2019-05-10T20:02:26.810Z,79.23
2019-05-10T20:04:53.599Z,77.88
2019-05-10T20:07:21.422Z,78.52
2019-05-10T20:09:48.163Z,81.73
2019-05-10T20:12:15.017Z,80.72
2019-05-10T20:14:41.828Z,82.99
2019-05-10T20:17:08.588Z,83.39
2019-05-10T20:19:35.382Z,82.19
2019-05-10T20:22:02.285Z,82.46
2019-05-10T20:24:29.089Z,80.16
2019-05-10T20:26:55.910Z,83.77
2019-05-10T20:29:23.309Z,82.33
2019-05-10T20:31:50.371Z,84.78
2019-05-10T20:34:17.039Z,81.46
2019-05-10T20:36:44.047Z,82.16
2019-05-10T20:39:10.887Z,81.66
2019-05-10T20:41:37.648Z,81.16
2019-05-10T20:44:06.182Z,81.90
2019-05-10T20:46:32.959Z,81.58
2019-05-10T20:48:59.835Z,82.56
2019-05-10T20:51:26.671Z,83.87
2019-05-10T20:53:54.168Z,83.86
2019-05-10T20:56:20.942Z,85.07
2019-05-10T20:58:47.845Z,85.89
2019-05-10T21:01:14.945Z,86.84
2019-05-10T21:03:41.825Z,85.13
2019-05-10T21:06:08.653Z,87.79
2019-05-10T21:08:36.061Z,90.33
2019-05-10T21:11:02.945Z,91.04
2019-05-10T21:13:29.746Z,91.90
2019-05-10T21:15:56.646Z,88.22
2019-05-10T21:18:23.558Z,91.15
2019-05-10T21:20:50.605Z,90.83
2019-05-10T21:23:17.776Z,90.20
2019-05-10T21:25:44.762Z,86.58
2019-05-10T21:28:11.670Z,88.97
2019-05-10T21:30:38.456Z,89.89
2019-05-10T21:33:05.367Z,87.77
2019-05-10T21:35:32.139Z,91.06
2019-05-10T21:37:59.072Z,87.81
2019-05-10T21:40:26.338Z,87.12
2019-05-10T21:42:53.502Z,87.53
2019-05-10T21:45:21.222Z,86.58
2019-05-10T21:47:51.627Z,88.12
2019-05-10T21:50:16.682Z,87.14
2019-05-10T21:52:43.397Z,88.93
2019-05-10T21:55:10.252Z,90.10
2019-05-10T21:57:37.615Z,91.66
2019-05-10T22:00:05.249Z,92.53
2019-05-10T22:02:32.410Z,91.32
2019-05-10T22:04:59.694Z,91.72
2019-05-10T22:07:27.024Z,91.43
2019-05-10T22:09:53.798Z,90.32
2019-05-10T22:12:20.746Z,91.83
2019-05-10T22:14:47.639Z,92.49
2019-05-10T22:17:14.556Z,94.14
2019-05-10T22:19:41.417Z,95.36
2019-05-10T22:22:08.289Z,96.19
2019-05-10T22:24:35.215Z,96.96
2019-05-10T22:27:01.979Z,96.76
2019-05-10T22:29:28.848Z,96.71
2019-05-10T22:31:55.754Z,97.62
2019-05-10T22:34:22.772Z,98.05
2019-05-10T22:36:49.589Z,98.38
2019-05-10T22:39:16.458Z,98.90
2019-05-10T22:41:43.387Z,99.57
2019-05-10T22:44:10.454Z,100.00
2019-05-10T22:46:37.303Z,100.00
2019-05-10T22:49:04.218Z,100.00
2019-05-10T22:51:31.419Z,100.00
2019-05-10T22:53:59.841Z,99.85
2019-05-10T22:56:27.008Z,100.00
2019-05-10T22:58:54.038Z,100.00
2019-05-10T23:01:20.970Z,100.00
2019-05-10T23:03:48.085Z,99.89
2019-05-10T23:06:14.753Z,100.00
2019-05-10T23:08:41.805Z,100.00
2019-05-10T23:11:08.553Z,100.00
2019-05-10T23:13:35.721Z,100.00
2019-05-10T23:16:02.479Z,100.00
2019-05-10T23:18:29.377Z,100.00
2019-05-10T23:20:56.259Z,100.00
2019-05-10T23:23:23.420Z,100.00
2019-05-10T23:25:50.302Z,100.00
2019-05-10T23:28:17.383Z,100.00
2019-05-10T23:30:44.128Z,100.00
2019-05-10T23:33:11.312Z,100.00
2019-05-10T23:35:38.069Z,100.00
2019-05-10T23:38:05.100Z,100.00
2019-05-10T23:40:32.359Z,100.00
2019-05-10T23:42:59.129Z,100.00
2019-05-10T23:45:26.031Z,100.00
2019-05-10T23:47:53.018Z,100.00
2019-05-10T23:50:20.077Z,100.00
2019-05-10T23:52:46.970Z,100.00
2019-05-10T23:55:13.855Z,100.00
2019-05-10T23:57:40.906Z,100.00
